createdAt,value
2022-11-17T00:00:21.550Z,9.74
2022-11-17T00:02:50.681Z,9.73
2022-11-17T00:05:18.633Z,9.73
2022-11-17T00:07:48.903Z,9.71
2022-11-17T00:10:18.162Z,9.71
2022-11-17T00:13:03.331Z,9.71
2022-11-17T00:15:31.106Z,9.71
2022-11-17T00:18:14.005Z,9.71
2022-11-17T00:21:00.270Z,9.69
2022-11-17T00:23:46.905Z,9.71
2022-11-17T00:26:16.458Z,9.72
2022-11-17T00:28:44.126Z,9.74
2022-11-17T00:31:30.299Z,9.74
2022-11-17T00:34:05.940Z,9.73
2022-11-17T00:36:35.406Z,9.73
2022-11-17T00:39:03.057Z,9.72
2022-11-17T00:41:30.761Z,9.70
2022-11-17T00:43:58.378Z,9.69
2022-11-17T00:46:26.037Z,9.69
2022-11-17T00:48:53.816Z,9.70
2022-11-17T00:51:23.355Z,9.68
2022-11-17T00:53:51.045Z,9.68
2022-11-17T00:56:18.793Z,9.67
2022-11-17T00:58:46.513Z,9.68
2022-11-17T01:01:14.303Z,9.67
2022-11-17T01:03:42.102Z,9.66
2022-11-17T01:06:11.771Z,9.68
2022-11-17T01:08:41.109Z,9.66
2022-11-17T01:11:11.335Z,9.66
2022-11-17T01:13:40.113Z,9.65
2022-11-17T01:16:10.437Z,9.65
2022-11-17T01:18:38.696Z,9.66
2022-11-17T01:21:09.136Z,9.66
2022-11-17T01:23:37.831Z,9.66
2022-11-17T01:26:09.507Z,9.66
2022-11-17T01:28:37.946Z,9.66
2022-11-17T01:31:08.191Z,9.65
2022-11-17T01:33:36.098Z,9.66
2022-11-17T01:36:04.560Z,9.71
2022-11-17T01:38:32.786Z,9.68
2022-11-17T01:41:01.331Z,9.68
2022-11-17T01:43:42.834Z,9.69
2022-11-17T01:46:19.989Z,9.67
2022-11-17T01:48:49.923Z,9.66
2022-11-17T01:51:18.613Z,9.68
2022-11-17T01:53:47.719Z,9.69
2022-11-17T01:56:20.579Z,9.69
2022-11-17T01:58:55.837Z,9.72
2022-11-17T02:01:23.572Z,9.74
2022-11-17T02:03:51.932Z,9.75
2022-11-17T02:06:25.447Z,9.76
2022-11-17T02:08:54.831Z,9.79
2022-11-17T02:11:23.787Z,9.77
2022-11-17T02:13:55.841Z,9.78
2022-11-17T02:16:23.528Z,9.81
2022-11-17T02:18:51.325Z,9.83
2022-11-17T02:21:56.825Z,9.90
2022-11-17T02:24:54.801Z,9.88
2022-11-17T02:27:53.317Z,9.87
2022-11-17T02:30:22.926Z,9.85
2022-11-17T02:33:01.904Z,9.87
2022-11-17T02:35:37.543Z,9.88
2022-11-17T02:38:17.779Z,9.88
2022-11-17T02:40:50.648Z,9.88
2022-11-17T02:43:41.121Z,9.87
2022-11-17T02:46:12.120Z,9.89
2022-11-17T02:48:42.816Z,9.89
2022-11-17T02:51:15.608Z,9.90
2022-11-17T02:53:43.890Z,9.91
2022-11-17T02:56:11.565Z,9.91
2022-11-17T02:58:40.570Z,9.91
2022-11-17T03:01:28.459Z,9.92
2022-11-17T03:04:11.826Z,9.94
2022-11-17T03:06:47.848Z,9.95
2022-11-17T03:09:22.747Z,9.97
2022-11-17T03:11:55.163Z,9.97
2022-11-17T03:14:32.480Z,9.96
2022-11-17T03:17:06.751Z,9.98
2022-11-17T03:19:39.206Z,9.99
2022-11-17T03:22:13.073Z,9.98
2022-11-17T03:24:46.031Z,9.99
2022-11-17T03:27:18.948Z,9.99
2022-11-17T03:29:52.228Z,10.01
2022-11-17T03:32:20.465Z,10.01
2022-11-17T03:34:53.250Z,10.02
2022-11-17T03:37:24.043Z,10.02
2022-11-17T03:39:54.815Z,10.03
2022-11-17T03:42:26.831Z,10.05
2022-11-17T03:44:58.265Z,10.05
2022-11-17T03:47:29.268Z,10.08
2022-11-17T03:50:03.109Z,10.09
2022-11-17T03:52:31.839Z,10.10
2022-11-17T03:54:59.875Z,10.12
2022-11-17T03:57:29.797Z,10.16
2022-11-17T04:00:01.591Z,10.14
2022-11-17T04:02:29.395Z,10.14
2022-11-17T04:05:09.297Z,10.15
2022-11-17T04:07:40.075Z,10.17
2022-11-17T04:10:09.827Z,10.19
2022-11-17T04:12:55.177Z,10.21
2022-11-17T04:15:47.585Z,10.21
2022-11-17T04:18:15.992Z,10.19
2022-11-17T04:20:43.670Z,10.19
2022-11-17T04:23:14.250Z,10.19
2022-11-17T04:26:01.568Z,10.18
2022-11-17T04:28:39.779Z,10.20
2022-11-17T04:31:11.677Z,10.21
2022-11-17T04:33:41.042Z,10.19
2022-11-17T04:36:10.035Z,10.19
2022-11-17T04:38:37.866Z,10.17
2022-11-17T04:41:24.597Z,10.16
2022-11-17T04:43:52.558Z,10.14
2022-11-17T04:46:23.040Z,10.13
2022-11-17T04:48:50.711Z,10.12
2022-11-17T04:51:18.469Z,10.11
2022-11-17T04:53:46.336Z,10.10
2022-11-17T04:56:14.324Z,10.13
2022-11-17T04:58:42.142Z,10.13
2022-11-17T05:01:17.504Z,10.10
2022-11-17T05:03:48.221Z,10.11
2022-11-17T05:06:17.531Z,10.12
2022-11-17T05:08:45.800Z,10.13
2022-11-17T05:11:32.481Z,10.15
2022-11-17T05:14:00.559Z,10.16
2022-11-17T05:16:45.786Z,10.19
2022-11-17T05:19:16.921Z,10.17
2022-11-17T05:21:44.559Z,10.19
2022-11-17T05:24:11.592Z,10.20
2022-11-17T05:26:39.568Z,10.22
2022-11-17T05:29:07.897Z,10.26
2022-11-17T05:31:35.811Z,10.26
2022-11-17T05:34:04.152Z,10.24
2022-11-17T05:36:33.845Z,10.27
2022-11-17T05:39:01.805Z,10.25
2022-11-17T05:41:29.815Z,10.21
2022-11-17T05:43:57.370Z,10.22
2022-11-17T05:46:25.709Z,10.19
2022-11-17T05:48:54.143Z,10.15
2022-11-17T05:51:24.412Z,10.15
2022-11-17T05:53:53.411Z,10.13
2022-11-17T05:56:36.536Z,10.12
2022-11-17T05:59:23.319Z,10.11
2022-11-17T06:02:00.398Z,10.09
2022-11-17T06:04:28.506Z,10.08
2022-11-17T06:06:59.025Z,10.08
2022-11-17T06:09:30.724Z,10.07
2022-11-17T06:12:02.611Z,10.05
2022-11-17T06:14:33.485Z,10.05
2022-11-17T06:17:06.124Z,10.04
2022-11-17T06:19:39.422Z,10.03
2022-11-17T06:22:12.610Z,10.03
2022-11-17T06:24:44.156Z,10.05
2022-11-17T06:27:13.023Z,10.06
2022-11-17T06:29:43.847Z,10.06
2022-11-17T06:32:13.042Z,10.11
2022-11-17T06:34:40.847Z,10.12
2022-11-17T06:37:08.480Z,10.14
2022-11-17T06:39:36.139Z,10.15
2022-11-17T06:42:05.286Z,10.15
2022-11-17T06:44:33.017Z,10.14
2022-11-17T06:47:00.668Z,10.14
2022-11-17T06:49:28.498Z,10.13
2022-11-17T06:51:56.181Z,10.11
2022-11-17T06:54:23.884Z,10.09
2022-11-17T06:56:52.503Z,10.10
2022-11-17T06:59:21.551Z,10.10
2022-11-17T07:01:49.230Z,10.09
2022-11-17T07:04:16.927Z,10.10
2022-11-17T07:06:44.616Z,10.08
2022-11-17T07:09:12.310Z,10.10
2022-11-17T07:11:40.050Z,10.09
2022-11-17T07:14:07.780Z,10.06
2022-11-17T07:16:37.398Z,10.06
2022-11-17T07:19:05.120Z,10.05
2022-11-17T07:21:33.849Z,10.03
2022-11-17T07:24:01.694Z,10.03
2022-11-17T07:26:29.399Z,10.04
2022-11-17T07:28:57.155Z,10.02
2022-11-17T07:31:24.900Z,10.01
2022-11-17T07:33:55.124Z,10.00
2022-11-17T07:36:22.873Z,9.98
2022-11-17T07:38:50.579Z,9.95
2022-11-17T07:41:18.267Z,9.95
2022-11-17T07:43:45.962Z,9.91
2022-11-17T07:46:15.250Z,9.90
2022-11-17T07:48:44.362Z,9.90
2022-11-17T07:51:14.130Z,9.89
2022-11-17T07:53:41.945Z,9.87
2022-11-17T07:56:11.336Z,9.87
2022-11-17T07:58:39.837Z,9.85
2022-11-17T08:01:08.987Z,9.82
2022-11-17T08:03:36.929Z,9.80
2022-11-17T08:06:05.292Z,9.77
2022-11-17T08:08:35.448Z,9.75
2022-11-17T08:11:04.633Z,9.70
2022-11-17T08:13:32.434Z,9.64
2022-11-17T08:16:00.385Z,9.60
2022-11-17T08:18:30.442Z,9.57
2022-11-17T08:21:03.474Z,9.55
2022-11-17T08:23:31.331Z,9.54
2022-11-17T08:26:00.524Z,9.52
2022-11-17T08:28:28.283Z,9.49
2022-11-17T08:30:56.035Z,9.51
2022-11-17T08:33:23.815Z,9.51
2022-11-17T08:35:51.514Z,9.51
2022-11-17T08:38:19.413Z,9.50
2022-11-17T08:40:47.829Z,9.48
2022-11-17T08:43:16.870Z,9.46
2022-11-17T08:45:44.612Z,9.44
2022-11-17T08:48:12.294Z,9.43
2022-11-17T08:50:40.101Z,9.44
2022-11-17T08:53:07.902Z,9.40
2022-11-17T08:55:41.213Z,9.40
2022-11-17T08:58:09.322Z,9.39
2022-11-17T09:00:38.407Z,9.40
2022-11-17T09:03:07.540Z,9.38
2022-11-17T09:05:39.704Z,9.38
2022-11-17T09:08:37.819Z,9.39
2022-11-17T09:10:55.219Z,9.41
2022-11-17T09:13:22.972Z,9.46
2022-11-17T09:15:52.027Z,9.51
2022-11-17T09:18:19.717Z,9.54
2022-11-17T09:20:47.377Z,9.53
2022-11-17T09:23:15.089Z,9.57
2022-11-17T09:25:42.773Z,9.57
2022-11-17T09:28:10.464Z,9.56
2022-11-17T09:30:38.228Z,9.57
2022-11-17T09:33:07.264Z,9.57
2022-11-17T09:35:34.950Z,9.56
2022-11-17T09:38:02.802Z,9.57
2022-11-17T09:40:36.293Z,9.55
2022-11-17T09:43:09.770Z,9.56
2022-11-17T09:45:39.878Z,9.57
2022-11-17T09:48:39.593Z,9.59
2022-11-17T09:51:04.374Z,9.58
2022-11-17T09:53:43.215Z,9.57
2022-11-17T09:56:13.275Z,9.57
2022-11-17T09:58:46.177Z,9.58
2022-11-17T10:01:16.100Z,9.61
2022-11-17T10:03:47.795Z,9.59
2022-11-17T10:06:20.355Z,9.55
2022-11-17T10:08:58.174Z,9.56
2022-11-17T10:11:33.835Z,9.56
2022-11-17T10:14:13.439Z,9.52
2022-11-17T10:16:43.628Z,9.48
2022-11-17T10:19:17.892Z,9.49
2022-11-17T10:21:46.669Z,9.46
2022-11-17T10:24:34.876Z,9.49
2022-11-17T10:27:03.692Z,9.50
2022-11-17T10:29:31.455Z,9.52
2022-11-17T10:31:59.772Z,9.53
2022-11-17T10:34:41.413Z,9.53
2022-11-17T10:37:25.486Z,9.51
2022-11-17T10:40:10.147Z,9.46
2022-11-17T10:42:38.014Z,9.44
2022-11-17T10:45:07.376Z,9.41
2022-11-17T10:47:39.414Z,9.42
2022-11-17T10:50:27.476Z,9.41
2022-11-17T10:53:17.019Z,9.43
2022-11-17T10:55:45.434Z,9.47
2022-11-17T10:58:24.553Z,9.53
2022-11-17T11:00:54.781Z,9.56
2022-11-17T11:03:24.744Z,9.58
2022-11-17T11:05:59.734Z,9.62
2022-11-17T11:08:32.039Z,9.65
2022-11-17T11:11:01.173Z,9.66
2022-11-17T11:13:35.015Z,9.66
2022-11-17T11:16:02.729Z,9.66
2022-11-17T11:18:32.703Z,9.66
2022-11-17T11:21:12.513Z,9.65
2022-11-17T11:23:49.556Z,9.65
2022-11-17T11:26:45.553Z,9.64
2022-11-17T11:29:26.027Z,9.65
2022-11-17T11:32:07.686Z,9.62
2022-11-17T11:34:50.605Z,9.60
2022-11-17T11:37:19.894Z,9.59
2022-11-17T11:39:56.270Z,9.63
2022-11-17T11:42:46.071Z,9.63
2022-11-17T11:45:36.550Z,9.62
2022-11-17T11:48:17.621Z,9.61
2022-11-17T11:50:53.620Z,9.58
2022-11-17T11:53:28.141Z,9.56
2022-11-17T11:56:11.193Z,9.55
2022-11-17T11:58:44.128Z,9.53
2022-11-17T12:01:17.169Z,9.52
2022-11-17T12:03:50.966Z,9.51
2022-11-17T12:06:44.182Z,9.49
2022-11-17T12:09:45.894Z,9.47
2022-11-17T12:12:17.196Z,9.46
2022-11-17T12:15:30.450Z,9.44
2022-11-17T12:18:03.931Z,9.44
2022-11-17T12:20:54.669Z,9.44
2022-11-17T12:23:57.590Z,9.44
2022-11-17T12:26:28.931Z,9.42
2022-11-17T12:29:26.540Z,9.45
2022-11-17T12:31:55.957Z,9.44
2022-11-17T12:34:28.977Z,9.45
2022-11-17T12:37:26.286Z,9.46
2022-11-17T12:39:57.151Z,9.45
2022-11-17T12:42:26.532Z,9.45
2022-11-17T12:45:00.245Z,9.44
2022-11-17T12:47:29.806Z,9.43
2022-11-17T12:50:19.868Z,9.43
2022-11-17T12:52:59.995Z,9.42
2022-11-17T12:55:43.707Z,9.44
2022-11-17T12:58:20.884Z,9.45
2022-11-17T13:00:54.882Z,9.45
2022-11-17T13:03:29.321Z,9.45
2022-11-17T13:06:33.929Z,9.44
2022-11-17T13:08:57.805Z,9.43
2022-11-17T13:11:25.998Z,9.44
2022-11-17T13:14:11.551Z,9.45
2022-11-17T13:16:46.233Z,9.46
2022-11-17T13:19:32.270Z,9.47
2022-11-17T13:22:01.697Z,9.50
2022-11-17T13:24:31.718Z,9.47
2022-11-17T13:27:00.678Z,9.43
2022-11-17T13:29:29.741Z,9.41
2022-11-17T13:32:13.627Z,9.41
2022-11-17T13:34:53.131Z,9.40
2022-11-17T13:37:22.946Z,9.38
2022-11-17T13:40:02.392Z,9.38
2022-11-17T13:42:33.412Z,9.35
2022-11-17T13:45:06.093Z,9.36
2022-11-17T13:47:46.407Z,9.35
2022-11-17T13:50:38.181Z,9.34
2022-11-17T13:53:23.866Z,9.35
2022-11-17T13:55:52.622Z,9.34
2022-11-17T13:58:38.143Z,9.33
2022-11-17T14:01:07.943Z,9.32
2022-11-17T14:03:38.759Z,9.33
2022-11-17T14:06:08.350Z,9.34
2022-11-17T14:08:37.289Z,9.33
2022-11-17T14:11:16.467Z,9.34
2022-11-17T14:13:46.206Z,9.35
2022-11-17T14:16:25.789Z,9.39
2022-11-17T14:18:59.674Z,9.40
2022-11-17T14:21:27.933Z,9.42
2022-11-17T14:24:05.359Z,9.43
2022-11-17T14:26:33.334Z,9.46
2022-11-17T14:29:02.369Z,9.48
2022-11-17T14:31:33.351Z,9.50
2022-11-17T14:34:01.164Z,9.51
2022-11-17T14:36:29.114Z,9.53
2022-11-17T14:38:56.858Z,9.55
2022-11-17T14:41:24.487Z,9.56
2022-11-17T14:43:52.239Z,9.54
2022-11-17T14:46:22.804Z,9.57
2022-11-17T14:48:52.408Z,9.56
2022-11-17T14:51:20.915Z,9.58
2022-11-17T14:53:49.193Z,9.60
2022-11-17T14:56:18.857Z,9.61
2022-11-17T14:58:46.892Z,9.63
2022-11-17T15:01:16.322Z,9.65
2022-11-17T15:03:44.143Z,9.64
2022-11-17T15:06:19.446Z,9.64
2022-11-17T15:08:47.810Z,9.65
2022-11-17T15:11:17.511Z,9.65
2022-11-17T15:13:45.293Z,9.69
2022-11-17T15:16:13.577Z,9.74
2022-11-17T15:18:41.268Z,9.75
2022-11-17T15:21:11.021Z,9.76
2022-11-17T15:23:41.667Z,9.78
2022-11-17T15:26:12.064Z,9.77
2022-11-17T15:28:39.773Z,9.75
2022-11-17T15:31:12.729Z,9.74
2022-11-17T15:33:41.721Z,9.74
2022-11-17T15:36:11.546Z,9.81
2022-11-17T15:38:41.553Z,9.86
2022-11-17T15:41:11.596Z,9.89
2022-11-17T15:43:40.972Z,9.95
2022-11-17T15:46:10.568Z,9.95
2022-11-17T15:48:40.168Z,9.94
2022-11-17T15:51:09.028Z,9.96
2022-11-17T15:53:38.517Z,9.95
2022-11-17T15:56:09.802Z,9.88
2022-11-17T15:58:37.723Z,9.85
2022-11-17T16:01:13.655Z,9.80
2022-11-17T16:03:43.103Z,9.77
2022-11-17T16:06:12.149Z,9.78
2022-11-17T16:08:40.509Z,9.78
2022-11-17T16:11:10.902Z,9.75
2022-11-17T16:13:39.090Z,9.73
2022-11-17T16:16:08.645Z,9.69
2022-11-17T16:18:38.559Z,9.68
2022-11-17T16:21:07.853Z,9.67
2022-11-17T16:23:39.813Z,9.66
2022-11-17T16:26:09.359Z,9.69
2022-11-17T16:28:37.236Z,9.67
2022-11-17T16:31:15.765Z,9.66
2022-11-17T16:33:48.123Z,9.66
2022-11-17T16:36:15.946Z,9.67
2022-11-17T16:38:59.775Z,9.65
2022-11-17T16:41:32.567Z,9.65
2022-11-17T16:44:00.891Z,9.64
2022-11-17T16:46:30.466Z,9.60
2022-11-17T16:49:01.489Z,9.62
2022-11-17T16:51:29.471Z,9.63
2022-11-17T16:53:59.368Z,9.65
2022-11-17T16:56:27.412Z,9.63
2022-11-17T16:58:57.151Z,9.60
2022-11-17T17:01:27.246Z,9.58
2022-11-17T17:03:58.549Z,9.58
2022-11-17T17:06:26.590Z,9.64
2022-11-17T17:08:55.304Z,9.62
2022-11-17T17:11:23.561Z,9.61
2022-11-17T17:13:51.529Z,9.64
2022-11-17T17:16:21.310Z,9.62
2022-11-17T17:18:49.055Z,9.64
2022-11-17T17:21:20.218Z,9.64
2022-11-17T17:23:48.133Z,9.68
2022-11-17T17:26:18.344Z,9.65
2022-11-17T17:28:48.366Z,9.65
2022-11-17T17:31:21.396Z,9.65
2022-11-17T17:33:51.801Z,9.65
2022-11-17T17:36:20.966Z,9.64
2022-11-17T17:38:54.991Z,9.63
2022-11-17T17:41:24.488Z,9.64
2022-11-17T17:43:57.402Z,9.63
2022-11-17T17:46:25.556Z,9.62
2022-11-17T17:48:54.795Z,9.60
2022-11-17T17:51:25.024Z,9.60
2022-11-17T17:53:53.679Z,9.59
2022-11-17T17:56:22.603Z,9.59
2022-11-17T17:58:51.744Z,9.61
2022-11-17T18:01:21.867Z,9.58
2022-11-17T18:03:51.174Z,9.60
2022-11-17T18:06:22.359Z,9.61
2022-11-17T18:08:50.504Z,9.60
2022-11-17T18:11:20.047Z,9.59
2022-11-17T18:13:49.651Z,9.60
2022-11-17T18:16:19.929Z,9.61
2022-11-17T18:18:47.821Z,9.60
2022-11-17T18:21:18.198Z,9.58
2022-11-17T18:23:47.432Z,9.54
2022-11-17T18:26:17.181Z,9.53
2022-11-17T18:28:50.347Z,9.50
2022-11-17T18:31:18.136Z,9.48
2022-11-17T18:33:46.207Z,9.48
2022-11-17T18:36:13.728Z,9.47
2022-11-17T18:38:41.415Z,9.48
2022-11-17T18:41:12.170Z,9.48
2022-11-17T18:43:40.059Z,9.46
2022-11-17T18:46:09.261Z,9.47
2022-11-17T18:48:39.156Z,9.47
2022-11-17T18:51:23.304Z,9.44
2022-11-17T18:53:52.700Z,9.39
2022-11-17T18:56:24.686Z,9.34
2022-11-17T18:58:53.085Z,9.32
2022-11-17T19:01:22.746Z,9.31
2022-11-17T19:03:52.395Z,9.31
2022-11-17T19:06:21.186Z,9.29
2022-11-17T19:08:49.295Z,9.29
2022-11-17T19:11:17.574Z,9.23
2022-11-17T19:13:47.478Z,9.22
2022-11-17T19:16:17.302Z,9.22
2022-11-17T19:18:46.998Z,9.20
2022-11-17T19:21:16.367Z,9.17
2022-11-17T19:23:51.118Z,9.15
2022-11-17T19:26:22.076Z,9.11
2022-11-17T19:28:52.027Z,9.07
2022-11-17T19:31:21.252Z,9.08
2022-11-17T19:33:50.041Z,9.11
2022-11-17T19:36:20.026Z,9.11
2022-11-17T19:38:49.983Z,9.09
2022-11-17T19:41:19.797Z,9.09
2022-11-17T19:43:47.917Z,9.08
2022-11-17T19:46:17.707Z,9.06
2022-11-17T19:48:46.395Z,9.06
2022-11-17T19:51:16.540Z,9.04
2022-11-17T19:53:44.662Z,9.05
2022-11-17T19:56:12.313Z,9.00
2022-11-17T19:58:41.125Z,9.02
2022-11-17T20:01:10.642Z,8.98
2022-11-17T20:03:40.938Z,8.97
2022-11-17T20:06:09.767Z,8.94
2022-11-17T20:08:37.757Z,8.93
2022-11-17T20:11:07.706Z,8.93
2022-11-17T20:13:36.363Z,8.89
2022-11-17T20:16:11.523Z,8.88
2022-11-17T20:18:41.777Z,8.88
2022-11-17T20:21:10.264Z,8.87
2022-11-17T20:23:39.309Z,8.87
2022-11-17T20:26:08.273Z,8.86
2022-11-17T20:28:37.758Z,8.87
2022-11-17T20:31:09.933Z,8.87
2022-11-17T20:33:38.133Z,8.89
2022-11-17T20:36:07.678Z,8.85
2022-11-17T20:38:35.909Z,8.86
2022-11-17T20:41:05.019Z,8.84
2022-11-17T20:43:33.877Z,8.82
2022-11-17T20:46:02.003Z,8.82
2022-11-17T20:48:30.255Z,8.80
2022-11-17T20:50:58.594Z,8.79
2022-11-17T20:53:28.734Z,8.79
2022-11-17T20:55:57.044Z,8.80
2022-11-17T20:58:25.263Z,8.78
2022-11-17T21:00:53.252Z,8.78
2022-11-17T21:03:21.597Z,8.77
2022-11-17T21:05:58.763Z,8.75
2022-11-17T21:08:30.509Z,8.76
2022-11-17T21:10:58.855Z,8.76
2022-11-17T21:13:27.501Z,8.71
2022-11-17T21:16:10.613Z,8.70
2022-11-17T21:18:39.742Z,8.68
2022-11-17T21:21:09.591Z,8.68
2022-11-17T21:23:40.006Z,8.65
2022-11-17T21:26:08.708Z,8.65
2022-11-17T21:28:37.196Z,8.64
2022-11-17T21:31:08.031Z,8.63
2022-11-17T21:33:36.173Z,8.60
2022-11-17T21:36:07.910Z,8.58
2022-11-17T21:38:35.856Z,8.56
2022-11-17T21:41:05.418Z,8.54
2022-11-17T21:43:33.694Z,8.52
2022-11-17T21:46:06.723Z,8.49
2022-11-17T21:48:35.304Z,8.48
2022-11-17T21:51:03.169Z,8.45
2022-11-17T21:53:31.375Z,8.41
2022-11-17T21:56:02.447Z,8.38
2022-11-17T21:58:31.521Z,8.37
2022-11-17T22:00:59.666Z,8.36
2022-11-17T22:03:27.698Z,8.35
2022-11-17T22:06:00.997Z,8.34
2022-11-17T22:08:29.832Z,8.33
2022-11-17T22:10:57.498Z,8.30
2022-11-17T22:13:25.211Z,8.30
2022-11-17T22:15:54.266Z,8.30
2022-11-17T22:18:22.226Z,8.26
2022-11-17T22:20:51.865Z,8.24
2022-11-17T22:23:19.608Z,8.21
2022-11-17T22:25:54.240Z,8.17
2022-11-17T22:28:22.505Z,8.17
2022-11-17T22:30:50.213Z,8.15
2022-11-17T22:33:20.257Z,8.15
2022-11-17T22:35:48.744Z,8.13
2022-11-17T22:38:17.098Z,8.12
2022-11-17T22:40:44.901Z,8.12
2022-11-17T22:43:15.431Z,8.11
2022-11-17T22:45:43.766Z,8.09
2022-11-17T22:48:11.590Z,8.09
2022-11-17T22:50:40.680Z,8.07
2022-11-17T22:53:08.380Z,8.07
2022-11-17T22:55:36.252Z,8.04
2022-11-17T22:58:03.950Z,8.01
2022-11-17T23:00:33.540Z,7.97
2022-11-17T23:03:01.464Z,7.94
2022-11-17T23:05:29.202Z,7.93
2022-11-17T23:07:58.304Z,7.89
2022-11-17T23:10:25.987Z,7.88
2022-11-17T23:12:53.720Z,7.86
2022-11-17T23:15:21.766Z,7.86
2022-11-17T23:17:49.842Z,7.83
2022-11-17T23:20:17.608Z,7.81
2022-11-17T23:22:45.255Z,7.77
2022-11-17T23:25:14.321Z,7.77
2022-11-17T23:27:42.135Z,7.75
2022-11-17T23:30:10.830Z,7.73
2022-11-17T23:32:38.514Z,7.73
2022-11-17T23:35:06.901Z,7.69
2022-11-17T23:37:34.591Z,7.67
2022-11-17T23:40:02.436Z,7.64
2022-11-17T23:42:32.630Z,7.63
2022-11-17T23:45:00.755Z,7.62
2022-11-17T23:47:28.388Z,7.62
2022-11-17T23:49:55.989Z,7.61
2022-11-17T23:52:23.674Z,7.60
2022-11-17T23:54:51.317Z,7.59
2022-11-17T23:57:18.970Z,7.56
2022-11-17T23:59:47.964Z,7.55
